Time;durP1;ratioP1;P1;durP2;ratioP2;P2;SDS_P1;SDS_P2;PMS_P1;PMS_P2;Temp;Humidity;BMP_temperature;BMP_pressure;BME280_temperature;BME280_humidity;BME280_pressure;Samples;Min_cycle;Max_cycle;Signal;HPM_P1;HPM_P2
2024/04/07 00:00:29;;;;;;;14.10;11.00;;;;;;;13.80;100.00;100297.91;187333;1231;43604;-69
2024/04/07 00:04:51;;;;;;;15.30;10.70;;;;;;;13.70;100.00;100302.98;187351;1235;61548;-68
2024/04/07 00:13:52;;;;;;;14.60;11.40;;;;;;;13.51;100.00;100299.21;187379;1231;42966;-68
2024/04/07 00:17:54;;;;;;;19.20;13.30;;;;;;;13.43;100.00;100295.67;187343;1231;43120;-68
2024/04/07 00:21:56;;;;;;;20.30;13.40;;;;;;;13.37;100.00;100292.77;187379;1231;42936;-68
2024/04/07 00:25:58;;;;;;;14.60;11.00;;;;;;;13.36;100.00;100295.92;187318;1231;59323;-68
2024/04/07 00:30:25;;;;;;;12.40;10.30;;;;;;;13.35;100.00;100292.32;187355;1231;43598;-68
2024/04/07 00:34:27;;;;;;;10.80;9.80;;;;;;;13.28;100.00;100292.55;187335;1231;43311;-68
2024/04/07 00:39:08;;;;;;;14.40;11.80;;;;;;;13.22;100.00;100294.88;187308;1231;43253;-68
2024/04/07 00:43:09;;;;;;;11.60;9.80;;;;;;;13.15;100.00;100290.40;187403;1231;43002;-68
2024/04/07 00:47:16;;;;;;;12.50;10.80;;;;;;;13.08;100.00;100287.81;187309;1231;59578;-68
2024/04/07 00:51:19;;;;;;;14.20;11.90;;;;;;;13.00;100.00;100290.32;187350;1231;43915;-69
2024/04/07 00:55:21;;;;;;;13.80;10.50;;;;;;;12.98;100.00;100287.29;187276;1231;42985;-68
2024/04/07 00:59:23;;;;;;;13.20;11.70;;;;;;;12.96;100.00;100290.66;187379;1231;43013;-68
2024/04/07 01:03:27;;;;;;;14.60;11.50;;;;;;;12.91;100.00;100289.00;187231;1232;43485;-68
2024/04/07 01:07:28;;;;;;;15.10;10.60;;;;;;;12.88;100.00;100284.48;187135;1231;58446;-68
2024/04/07 01:17:06;;;;;;;16.10;11.60;;;;;;;12.81;100.00;100268.95;187259;1231;43627;-68
2024/04/07 01:21:08;;;;;;;15.30;12.20;;;;;;;12.76;100.00;100272.77;187381;1231;44112;-68
2024/04/07 01:25:15;;;;;;;20.90;13.50;;;;;;;12.77;100.00;100268.61;187296;1231;43603;-68
2024/04/07 01:29:17;;;;;;;20.00;15.00;;;;;;;12.83;100.00;100267.12;187324;1231;58765;-68
2024/04/07 01:33:19;;;;;;;22.40;12.20;;;;;;;12.84;100.00;100263.85;187277;1231;43041;-68
2024/04/07 01:37:20;;;;;;;10.40;9.30;;;;;;;12.92;100.00;100262.92;187297;1231;43492;-68
2024/04/07 01:41:22;;;;;;;14.60;10.00;;;;;;;12.94;100.00;100266.67;187344;1231;43070;-68
2024/04/07 01:45:23;;;;;;;16.00;9.70;;;;;;;12.90;100.00;100260.99;187397;1231;42986;-69
2024/04/07 01:49:25;;;;;;;14.80;9.80;;;;;;;12.89;100.00;100262.52;187284;1231;58466;-68
2024/04/07 01:53:42;;;;;;;10.70;8.00;;;;;;;12.84;100.00;100260.64;187348;1231;43596;-67
2024/04/07 01:57:44;;;;;;;11.10;8.20;;;;;;;12.81;100.00;100264.50;187361;1231;43032;-68
2024/04/07 02:01:45;;;;;;;10.90;9.10;;;;;;;12.92;100.00;100267.59;187241;1231;43004;-68
2024/04/07 02:05:47;;;;;;;14.30;8.40;;;;;;;13.00;100.00;100266.65;187380;1231;43440;-68
2024/04/07 02:09:49;;;;;;;9.40;8.40;;;;;;;13.05;100.00;100268.70;187327;1236;57202;-68
2024/04/07 02:13:51;;;;;;;13.60;7.80;;;;;;;13.10;100.00;100263.81;187305;1231;43602;-68
2024/04/07 02:17:52;;;;;;;8.10;7.30;;;;;;;13.14;100.00;100262.35;187354;1231;43600;-67
2024/04/07 02:21:58;;;;;;;12.00;8.30;;;;;;;13.13;100.00;100263.66;187350;1231;43028;-68
2024/04/07 02:26:00;;;;;;;9.90;7.40;;;;;;;13.14;100.00;100258.73;187309;1232;43387;-68
2024/04/07 02:30:04;;;;;;;10.90;7.20;;;;;;;13.14;100.00;100247.93;187341;1231;60488;-67
2024/04/07 02:34:12;;;;;;;9.40;7.70;;;;;;;13.11;100.00;100244.42;187288;1231;43056;-67
2024/04/07 02:38:14;;;;;;;12.70;8.10;;;;;;;12.96;100.00;100244.93;187302;1232;43758;-67
2024/04/07 02:42:15;;;;;;;7.90;7.10;;;;;;;12.68;100.00;100246.59;187327;1231;43017;-68
2024/04/07 02:50:37;;;;;;;10.30;8.40;;;;;;;12.50;100.00;100245.54;187366;1231;58982;-68
2024/04/07 02:54:40;;;;;;;12.60;8.50;;;;;;;12.49;100.00;100247.42;187314;1231;43023;-70
2024/04/07 02:58:46;;;;;;;10.80;8.00;;;;;;;12.51;100.00;100246.75;187367;1231;43022;-67
2024/04/07 03:02:47;;;;;;;16.90;8.90;;;;;;;12.53;100.00;100249.52;187162;1231;43027;-67
2024/04/07 03:06:51;;;;;;;11.70;9.20;;;;;;;12.53;100.00;100252.34;187382;1231;42966;-69
2024/04/07 03:10:57;;;;;;;11.40;8.20;;;;;;;12.56;100.00;100251.09;187237;1231;58293;-68
2024/04/07 03:15:03;;;;;;;12.10;9.60;;;;;;;12.59;100.00;100245.86;187266;1231;43071;-67
2024/04/07 03:19:05;;;;;;;11.90;8.90;;;;;;;12.58;100.00;100242.54;187237;1231;43018;-67
2024/04/07 03:23:07;;;;;;;11.40;9.70;;;;;;;12.57;100.00;100245.44;187306;1231;43653;-68
2024/04/07 03:27:12;;;;;;;12.00;9.30;;;;;;;12.55;100.00;100250.08;187410;1231;43667;-70
2024/04/07 03:31:13;;;;;;;10.60;9.20;;;;;;;12.53;100.00;100242.30;187216;1231;57989;-67
2024/04/07 03:35:53;;;;;;;15.90;8.80;;;;;;;12.51;100.00;100236.94;187323;1231;42974;-70
2024/04/07 03:39:55;;;;;;;10.90;9.00;;;;;;;12.50;100.00;100231.84;187364;1231;42974;-68
2024/04/07 03:49:29;;;;;;;17.40;10.20;;;;;;;12.35;100.00;100223.05;187329;1231;42938;-67
2024/04/07 03:53:31;;;;;;;11.60;10.20;;;;;;;12.31;100.00;100226.48;187364;1231;59478;-67
2024/04/07 03:57:32;;;;;;;10.40;8.30;;;;;;;12.24;100.00;100223.22;187236;1231;43030;-67
2024/04/07 04:01:35;;;;;;;14.20;9.50;;;;;;;12.22;100.00;100222.09;187297;1236;42993;-69
2024/04/07 04:05:37;;;;;;;17.50;11.80;;;;;;;12.18;100.00;100222.64;187393;1231;43034;-68
2024/04/07 04:10:35;;;;;;;13.80;10.30;;;;;;;12.14;100.00;100219.98;187381;1231;43528;-69
2024/04/07 04:14:37;;;;;;;14.30;10.00;;;;;;;12.09;100.00;100219.53;187285;1231;57955;-67
2024/04/07 04:24:28;;;;;;;13.00;9.70;;;;;;;12.02;100.00;100226.69;187358;1231;43072;-70
2024/04/07 04:28:29;;;;;;;12.70;10.20;;;;;;;12.00;100.00;100226.69;187363;1231;43527;-67
2024/04/07 04:32:32;;;;;;;9.80;8.00;;;;;;;11.97;100.00;100229.95;187337;1232;43609;-67
2024/04/07 04:41:35;;;;;;;11.60;8.90;;;;;;;11.99;100.00;100244.70;187364;1232;43727;-68
2024/04/07 04:45:36;;;;;;;11.20;8.50;;;;;;;12.02;100.00;100241.98;187382;1232;43718;-67
2024/04/07 04:49:38;;;;;;;12.20;10.10;;;;;;;12.13;100.00;100244.16;187408;1232;43055;-70
2024/04/07 04:53:40;;;;;;;10.40;8.10;;;;;;;12.27;100.00;100243.89;187410;1231;42920;-68
2024/04/07 04:57:48;;;;;;;8.10;5.80;;;;;;;12.50;100.00;100250.54;187343;1231;58121;-68
2024/04/07 05:01:49;;;;;;;8.90;7.30;;;;;;;12.78;100.00;100248.40;187343;1232;43243;-68
2024/04/07 05:05:52;;;;;;;8.40;7.00;;;;;;;13.10;100.00;100246.85;187327;1232;42950;-68
2024/04/07 05:10:19;;;;;;;12.20;7.40;;;;;;;13.34;100.00;100242.49;187348;1232;43016;-67
2024/04/07 05:16:50;;;;;;;9.10;6.60;;;;;;;14.21;100.00;100233.53;175210;1291;566920;-67
2024/04/07 05:20:57;;;;;;;7.70;5.70;;;;;;;14.80;100.00;100237.95;179741;1262;58415;-67
2024/04/07 05:25:01;;;;;;;6.40;4.40;;;;;;;15.16;100.00;100244.34;179737;1262;44436;-67
2024/04/07 05:29:35;;;;;;;5.80;5.10;;;;;;;15.31;100.00;100245.50;179834;1256;206230;-68
2024/04/07 05:33:46;;;;;;;8.80;5.80;;;;;;;15.59;100.00;100240.48;180225;1260;44682;-68
2024/04/07 05:37:49;;;;;;;6.50;5.40;;;;;;;15.92;100.00;100241.38;180140;1255;45093;-67
2024/04/07 05:41:52;;;;;;;6.90;5.20;;;;;;;16.18;100.00;100235.48;180159;1256;58228;-66
2024/04/07 05:45:56;;;;;;;11.20;8.50;;;;;;;16.40;100.00;100234.36;180113;1256;45976;-66
2024/04/07 05:50:32;;;;;;;34.00;22.50;;;;;;;16.60;100.00;100230.25;180253;1256;44230;-66
2024/04/07 05:54:35;;;;;;;19.70;15.00;;;;;;;16.76;100.00;100231.40;180207;1256;45983;-66
2024/04/07 05:58:40;;;;;;;8.60;5.20;;;;;;;17.01;100.00;100233.73;179891;1256;46433;-67
2024/04/07 06:02:44;;;;;;;8.40;5.30;;;;;;;17.32;99.60;100232.69;180152;1256;58406;-67
2024/04/07 06:06:47;;;;;;;4.90;4.50;;;;;;;17.64;97.85;100231.85;180060;1256;43503;-67
2024/04/07 06:10:50;;;;;;;12.20;8.70;;;;;;;17.88;96.46;100236.33;179984;1257;44885;-67
2024/04/07 06:14:55;;;;;;;11.50;5.60;;;;;;;17.89;96.83;100241.27;180063;1256;46453;-67
2024/04/07 06:18:59;;;;;;;6.40;5.40;;;;;;;17.98;97.98;100242.14;180266;1256;46064;-67
2024/04/07 06:23:04;;;;;;;8.00;5.80;;;;;;;18.16;97.37;100246.45;180265;1258;57371;-67
2024/04/07 06:27:07;;;;;;;9.20;6.10;;;;;;;18.38;97.20;100239.22;180074;1256;43775;-68
2024/04/07 06:31:22;;;;;;;7.70;5.60;;;;;;;18.65;96.80;100237.42;180113;1256;46001;-67
2024/04/07 06:35:25;;;;;;;9.60;5.30;;;;;;;18.89;96.34;100236.21;180001;1256;43706;-68
2024/04/07 06:39:50;;;;;;;6.30;4.40;;;;;;;19.16;94.35;100239.91;180049;1258;45660;-67
2024/04/07 06:43:54;;;;;;;4.60;3.40;;;;;;;19.39;96.56;100244.35;180154;1256;58182;-68
2024/04/07 06:47:57;;;;;;;6.30;4.20;;;;;;;19.56;95.43;100242.69;180018;1256;46031;-68
2024/04/07 06:52:25;;;;;;;6.00;4.30;;;;;;;19.50;94.58;100231.98;180242;1258;44760;-69
2024/04/07 06:56:30;;;;;;;6.00;4.50;;;;;;;19.42;96.28;100224.21;180270;1256;46176;-68
2024/04/07 07:00:39;;;;;;;10.90;4.50;;;;;;;19.41;95.60;100214.25;180673;1255;43606;-68
2024/04/07 07:04:43;;;;;;;5.60;3.60;;;;;;;19.53;93.89;100216.05;180327;1256;59404;-70
2024/04/07 07:08:45;;;;;;;4.30;3.30;;;;;;;19.72;94.28;100216.16;180137;1255;45524;-69
2024/04/07 07:12:48;;;;;;;7.50;4.20;;;;;;;19.90;93.75;100214.02;180020;1256;44888;-67
2024/04/07 07:16:51;;;;;;;10.70;5.20;;;;;;;20.01;93.98;100214.97;179911;1257;46048;-67
2024/04/07 07:21:21;;;;;;;6.20;3.40;;;;;;;20.27;94.15;100211.95;179991;1257;43590;-68
2024/04/07 07:25:25;;;;;;;3.30;2.70;;;;;;;20.47;92.48;100218.20;179967;1258;58911;-68
2024/04/07 07:29:28;;;;;;;5.70;4.60;;;;;;;20.65;93.41;100226.30;179972;1257;44444;-68
2024/04/07 07:33:31;;;;;;;5.30;3.80;;;;;;;20.78;93.53;100224.92;179900;1256;44642;-68
2024/04/07 07:43:16;;;;;;;10.80;9.20;;;;;;;21.48;94.05;100232.15;180292;1258;45996;-68
2024/04/07 07:47:34;;;;;;;5.60;3.60;;;;;;;21.74;93.37;100236.44;179952;1258;58714;-69
2024/04/07 07:51:37;;;;;;;5.30;4.50;;;;;;;21.84;93.41;100238.27;180063;1259;46128;-69
2024/04/07 07:55:40;;;;;;;18.80;6.30;;;;;;;22.05;92.49;100234.77;180025;1259;45985;-66
2024/04/07 07:59:43;;;;;;;3.60;3.20;;;;;;;22.09;91.20;100226.95;180039;1258;46021;-63
2024/04/07 08:03:46;;;;;;;4.40;3.70;;;;;;;22.24;92.59;100220.52;179990;1256;46139;-65
2024/04/07 08:08:20;;;;;;;4.00;2.70;;;;;;;22.56;93.61;100215.92;180097;1260;58718;-63
2024/04/07 08:12:26;;;;;;;;;;;;;;;22.81;90.38;100221.88;180305;1257;45895;-63
2024/04/07 08:16:40;;;;;;;2.40;2.00;;;;;;;23.04;88.93;100222.50;180759;1255;43679;-69
2024/04/07 08:20:43;;;;;;;2.70;2.20;;;;;;;23.25;89.39;100225.25;180744;1259;43769;-68
2024/04/07 08:25:08;;;;;;;3.50;2.10;;;;;;;23.52;90.16;100227.84;180394;1256;43756;-63
2024/04/07 08:29:10;;;;;;;4.80;3.70;;;;;;;23.80;90.67;100230.79;180042;1259;58152;-65
2024/04/07 08:33:16;;;;;;;9.40;3.80;;;;;;;24.09;87.44;100229.35;179865;1256;88512;-88
2024/04/07 08:37:20;;;;;;;5.20;2.90;;;;;;;24.30;87.40;100225.67;179220;1257;45959;-88
2024/04/07 08:41:23;;;;;;;3.10;2.30;;;;;;;24.62;86.58;100222.95;178746;1258;45390;-88
2024/04/07 08:45:27;;;;;;;2.30;2.10;;;;;;;24.91;84.17;100220.98;179568;1253;45959;-88
2024/04/07 08:49:33;;;;;;;2.00;1.40;;;;;;;25.07;77.10;100220.89;180163;1253;59641;-88
2024/04/07 08:53:41;;;;;;;2.90;1.60;;;;;;;25.05;63.22;100219.20;179885;1253;44869;-88
2024/04/07 08:57:44;;;;;;;3.20;1.20;;;;;;;25.08;62.94;100210.46;179900;1253;46111;-88
2024/04/07 09:01:50;;;;;;;7.00;2.70;;;;;;;25.16;61.37;100205.39;179871;1254;46055;-88
2024/04/07 09:05:53;;;;;;;;;;;;;;;25.40;62.05;100203.02;179993;1253;46096;-87
2024/04/07 09:09:56;;;;;;;10.50;1.20;;;;;;;25.50;61.22;100197.56;179915;1252;59097;-88
2024/04/07 09:13:59;;;;;;;0.70;0.70;;;;;;;25.50;61.84;100198.48;179942;1253;46001;-88
2024/04/07 09:18:03;;;;;;;2.50;0.60;;;;;;;25.55;61.50;100201.23;180280;1252;44962;-88
2024/04/07 09:22:07;;;;;;;2.70;1.40;;;;;;;25.67;60.64;100202.40;179829;1253;46000;-88
2024/04/07 09:26:11;;;;;;;1.60;1.10;;;;;;;25.79;59.57;100200.98;179692;1252;45964;-88
2024/04/07 09:30:15;;;;;;;2.00;0.90;;;;;;;26.13;60.08;100194.67;179499;1253;59269;-87
2024/04/07 09:34:18;;;;;;;1.30;0.90;;;;;;;26.51;58.80;100191.95;179769;1252;44647;-89
2024/04/07 09:38:21;;;;;;;12.30;2.40;;;;;;;26.76;57.78;100184.97;180109;1253;44687;-89
2024/04/07 09:42:31;;;;;;;1.10;1.00;;;;;;;26.96;57.12;100174.98;180319;1253;45930;-86
2024/04/07 09:46:39;;;;;;;2.20;1.00;;;;;;;27.17;56.50;100168.48;180262;1254;45043;-88
2024/04/07 09:50:45;;;;;;;1.30;0.80;;;;;;;27.33;55.94;100165.21;180560;1253;58202;-88
2024/04/07 09:54:53;;;;;;;1.10;0.50;;;;;;;27.50;55.03;100164.86;180318;1252;45972;-87
2024/04/07 09:58:59;;;;;;;3.80;1.10;;;;;;;27.63;55.30;100161.65;180232;1252;48201;-85
2024/04/07 10:03:04;;;;;;;1.50;0.90;;;;;;;27.84;55.63;100161.88;179886;1253;45875;-86
2024/04/07 10:07:12;;;;;;;4.10;1.50;;;;;;;27.98;55.40;100153.06;180101;1254;44010;-88
2024/04/07 10:11:20;;;;;;;4.90;2.30;;;;;;;28.09;55.93;100155.50;180066;1253;59501;-87
2024/04/07 10:15:26;;;;;;;3.60;2.00;;;;;;;28.26;55.08;100151.94;180139;1252;46112;-85
2024/04/07 10:19:30;;;;;;;2.90;2.40;;;;;;;28.32;55.45;100157.08;180201;1253;46122;-85
2024/04/07 10:23:38;;;;;;;4.90;2.70;;;;;;;28.39;56.05;100158.33;180474;1254;44625;-88
2024/04/07 10:27:45;;;;;;;2.70;1.50;;;;;;;28.49;56.50;100159.21;180231;1252;45969;-87
2024/04/07 10:31:48;;;;;;;4.40;1.60;;;;;;;28.55;54.10;100153.18;180964;1253;58291;-87
2024/04/07 10:35:57;;;;;;;1.40;0.70;;;;;;;28.64;57.18;100152.88;181561;1254;45942;-88
2024/04/07 10:40:06;;;;;;;0.80;0.60;;;;;;;28.76;53.66;100157.77;180428;1254;45911;-88
2024/04/07 10:44:09;;;;;;;3.40;1.20;;;;;;;28.94;54.98;100166.27;180258;1252;46016;-88
2024/04/07 10:48:13;;;;;;;1.70;0.70;;;;;;;29.10;56.17;100177.06;180364;1254;44092;-87
2024/04/07 10:52:19;;;;;;;1.80;0.60;;;;;;;29.22;54.98;100186.76;180039;1253;59218;-87
2024/04/07 10:56:22;;;;;;;;;;;;;;;29.31;56.56;100186.83;180353;1254;44278;-88
2024/04/07 11:00:26;;;;;;;0.60;0.40;;;;;;;29.29;56.89;100179.89;180234;1252;45792;-87
2024/04/07 11:04:29;;;;;;;3.40;0.80;;;;;;;29.03;52.53;100181.07;180257;1253;45956;-85
2024/04/07 11:08:34;;;;;;;3.50;1.20;;;;;;;28.92;51.73;100189.57;180557;1254;43613;-87
2024/04/07 11:12:43;;;;;;;1.90;1.00;;;;;;;28.92;57.60;100199.53;180535;1253;59218;-88
2024/04/07 11:16:51;;;;;;;2.40;1.50;;;;;;;28.99;55.47;100191.09;180795;1252;45895;-87
2024/04/07 11:20:59;;;;;;;1.50;1.20;;;;;;;28.98;53.71;100199.23;180495;1253;44485;-88
2024/04/07 11:25:03;;;;;;;2.80;1.60;;;;;;;28.92;57.07;100205.50;180650;1256;46151;-87
2024/04/07 11:29:07;;;;;;;1.60;1.10;;;;;;;28.76;53.92;100211.14;180283;1256;46408;-86
2024/04/07 11:33:11;;;;;;;4.70;2.50;;;;;;;28.62;53.93;100214.19;179813;1253;58711;-88
2024/04/07 11:37:14;;;;;;;5.20;1.90;;;;;;;28.48;53.80;100213.58;180283;1252;46076;-87
2024/04/07 11:41:18;;;;;;;2.00;1.00;;;;;;;28.35;55.53;100218.44;180206;1254;45883;-86
2024/04/07 11:45:22;;;;;;;2.60;1.70;;;;;;;28.51;57.73;100212.15;180139;1253;46049;-86
2024/04/07 11:49:26;;;;;;;5.20;1.40;;;;;;;28.71;57.82;100218.77;180230;1253;45962;-84
2024/04/07 11:53:29;;;;;;;6.80;1.20;;;;;;;28.76;53.35;100215.63;180585;1254;61277;-86
2024/04/07 11:57:39;;;;;;;1.90;1.40;;;;;;;28.98;53.17;100205.25;180628;1255;46109;-88
2024/04/07 12:01:42;;;;;;;1.80;1.60;;;;;;;29.31;54.00;100199.04;180258;1252;44552;-89
2024/04/07 12:05:46;;;;;;;3.60;1.20;;;;;;;29.54;49.87;100196.79;180475;1253;46060;-87
2024/04/07 12:09:50;;;;;;;3.10;1.50;;;;;;;29.59;50.53;100197.56;180469;1254;44334;-84
2024/04/07 12:13:54;;;;;;;;;;;;;;;29.52;49.50;100194.09;180404;1253;59445;-86
2024/04/07 12:17:58;;;;;;;2.90;1.30;;;;;;;29.50;51.87;100185.46;180592;1252;45818;-88
2024/04/07 12:22:08;;;;;;;1.40;1.00;;;;;;;29.56;52.06;100184.98;180407;1252;46036;-88
2024/04/07 12:26:11;;;;;;;9.20;2.40;;;;;;;29.70;50.53;100184.05;180371;1252;46098;-87
2024/04/07 12:30:15;;;;;;;3.00;1.10;;;;;;;29.85;49.90;100184.43;180385;1254;45932;-87
2024/04/07 12:34:19;;;;;;;2.00;1.60;;;;;;;29.96;52.25;100182.30;180544;1253;58180;-87
2024/04/07 12:38:22;;;;;;;2.00;1.10;;;;;;;29.93;49.74;100179.36;180657;1254;45981;-87
2024/04/07 12:42:28;;;;;;;3.00;1.20;;;;;;;30.03;49.87;100178.11;180320;1254;45206;-88
2024/04/07 12:46:32;;;;;;;2.10;1.30;;;;;;;30.02;48.68;100170.75;179902;1256;46103;-88
2024/04/07 12:50:36;;;;;;;1.90;1.10;;;;;;;29.99;48.32;100168.57;180163;1254;44667;-88
2024/04/07 12:54:39;;;;;;;2.80;0.80;;;;;;;29.97;46.92;100162.90;180328;1254;60547;-88
2024/04/07 12:58:44;;;;;;;2.60;1.30;;;;;;;30.00;47.22;100158.55;180151;1256;46006;-88
2024/04/07 13:02:48;;;;;;;1.40;1.00;;;;;;;29.99;49.75;100150.54;180471;1252;44144;-87
2024/04/07 13:06:51;;;;;;;1.10;1.00;;;;;;;29.71;50.98;100146.61;180318;1252;46146;-88
2024/04/07 13:10:55;;;;;;;0.90;0.90;;;;;;;29.54;52.09;100141.81;180169;1252;44193;-89
2024/04/07 13:14:59;;;;;;;1.50;1.20;;;;;;;29.40;53.46;100131.02;180265;1254;59424;-86
2024/04/07 13:19:10;;;;;;;2.10;1.20;;;;;;;29.09;54.59;100126.88;180548;1252;46195;-89
2024/04/07 13:23:17;;;;;;;1.90;1.30;;;;;;;28.78;54.89;100117.42;181574;1252;44535;-89
2024/04/07 13:27:20;;;;;;;2.30;1.30;;;;;;;28.65;55.38;100108.63;181644;1253;45212;-86
2024/04/07 13:31:24;;;;;;;1.40;0.90;;;;;;;28.55;57.30;100098.73;180347;1252;46048;-88
2024/04/07 13:35:28;;;;;;;4.50;0.90;;;;;;;28.68;56.93;100104.84;180456;1254;58735;-89
2024/04/07 13:39:31;;;;;;;0.60;0.60;;;;;;;28.88;55.19;100108.54;180144;1253;46338;-87
2024/04/07 13:43:35;;;;;;;2.40;1.20;;;;;;;28.92;54.80;100112.77;180034;1253;46086;-89
2024/04/07 13:47:39;;;;;;;1.70;1.40;;;;;;;28.98;54.44;100113.45;180227;1256;46346;-88
2024/04/07 13:51:42;;;;;;;2.30;0.70;;;;;;;29.08;53.52;100114.94;180156;1254;46037;-89
2024/04/07 13:55:46;;;;;;;1.20;0.90;;;;;;;29.20;55.24;100111.36;180198;1253;61471;-88
2024/04/07 13:59:49;;;;;;;1.40;0.90;;;;;;;29.33;55.57;100113.89;180397;1253;45301;-88
2024/04/07 14:03:53;;;;;;;2.00;0.80;;;;;;;29.44;55.90;100117.77;180423;1253;44234;-85
2024/04/07 14:07:56;;;;;;;1.80;0.90;;;;;;;29.46;55.44;100119.16;180144;1254;45882;-88
2024/04/07 14:12:00;;;;;;;2.90;1.50;;;;;;;29.30;57.18;100113.73;180306;1256;45416;-89
2024/04/07 14:16:03;;;;;;;2.10;0.70;;;;;;;29.29;59.51;100113.67;180116;1254;58812;-86
2024/04/07 14:20:07;;;;;;;1.80;1.30;;;;;;;29.45;59.72;100121.77;179914;1252;45892;-88
2024/04/07 14:24:11;;;;;;;3.30;0.90;;;;;;;29.45;56.98;100122.70;180442;1254;45917;-88
2024/04/07 14:28:15;;;;;;;1.80;1.70;;;;;;;29.46;56.49;100122.34;180338;1254;46134;-88
2024/04/07 14:32:18;;;;;;;4.20;1.20;;;;;;;29.51;55.04;100129.30;180323;1252;44266;-85
2024/04/07 14:36:22;;;;;;;5.00;1.60;;;;;;;29.68;52.66;100135.39;180559;1254;58122;-87
2024/04/07 14:40:27;;;;;;;9.60;2.40;;;;;;;29.71;52.38;100125.45;180556;1253;44029;-87
2024/04/07 14:44:34;;;;;;;10.50;2.70;;;;;;;29.67;52.91;100126.08;180604;1254;45969;-84
2024/04/07 14:48:38;;;;;;;3.70;1.20;;;;;;;29.44;53.06;100117.98;180696;1254;45954;-85
2024/04/07 14:52:41;;;;;;;3.30;1.20;;;;;;;29.04;55.62;100115.81;180580;1253;45969;-84
2024/04/07 14:56:45;;;;;;;6.40;2.40;;;;;;;28.64;59.54;100108.51;180528;1254;59244;-85
2024/04/07 15:00:48;;;;;;;16.00;4.20;;;;;;;28.22;61.18;100112.83;180100;1254;46059;-83
2024/04/07 15:04:53;;;;;;;3.60;1.00;;;;;;;27.88;62.58;100109.20;179956;1254;46042;-85
2024/04/07 15:08:56;;;;;;;2.60;1.20;;;;;;;27.56;62.61;100104.52;180612;1254;46013;-85
2024/04/07 15:12:59;;;;;;;7.30;2.30;;;;;;;27.39;64.43;100108.75;180121;1254;45105;-83
2024/04/07 15:17:10;;;;;;;3.80;1.10;;;;;;;27.31;63.22;100111.24;180652;1254;59432;-84
2024/04/07 15:21:15;;;;;;;2.90;1.50;;;;;;;27.31;63.83;100118.13;179998;1254;45996;-84
2024/04/07 15:25:18;;;;;;;1.30;1.10;;;;;;;27.37;64.25;100123.45;180318;1252;44859;-84
2024/04/07 15:29:21;;;;;;;2.90;1.20;;;;;;;27.42;65.76;100122.30;180106;1253;44367;-83
2024/04/07 15:33:25;;;;;;;1.90;1.50;;;;;;;27.47;64.89;100112.25;180051;1254;44655;-84
2024/04/07 15:37:28;;;;;;;4.40;2.40;;;;;;;27.59;64.77;100113.81;180259;1252;57902;-85
2024/04/07 15:41:32;;;;;;;11.00;3.00;;;;;;;27.73;67.39;100116.15;180042;1255;44059;-84
2024/04/07 15:45:36;;;;;;;15.40;4.10;;;;;;;27.86;64.53;100113.27;180641;1254;46052;-83
2024/04/07 15:49:39;;;;;;;2.40;0.80;;;;;;;27.69;79.32;100121.31;180071;1254;45305;-84
2024/04/07 15:53:43;;;;;;;1.50;1.10;;;;;;;27.23;81.80;100124.30;180236;1254;45533;-84
2024/04/07 15:57:46;;;;;;;9.50;3.50;;;;;;;27.14;75.88;100120.48;180116;1256;58277;-84
2024/04/07 16:01:49;;;;;;;2.50;1.70;;;;;;;27.21;74.77;100120.67;180507;1252;44121;-85
2024/04/07 16:05:53;;;;;;;2.20;1.40;;;;;;;27.17;80.75;100123.11;180366;1254;44851;-84
2024/04/07 16:09:57;;;;;;;2.80;1.90;;;;;;;26.79;69.91;100116.61;180236;1253;45920;-84
2024/04/07 16:14:00;;;;;;;3.30;2.20;;;;;;;26.53;68.36;100113.79;181142;1253;45815;-84
2024/04/07 16:18:04;;;;;;;3.10;1.10;;;;;;;26.33;68.54;100109.01;181076;1253;59335;-84
2024/04/07 16:22:07;;;;;;;7.50;1.90;;;;;;;26.05;65.52;100110.84;180126;1257;45986;-83
2024/04/07 16:26:10;;;;;;;4.10;1.10;;;;;;;25.81;66.04;100121.02;179875;1256;44067;-85
2024/04/07 16:30:14;;;;;;;2.30;1.50;;;;;;;25.57;65.71;100114.54;180035;1254;45110;-84
2024/04/07 16:34:17;;;;;;;2.00;1.10;;;;;;;25.23;65.61;100112.46;180110;1254;45199;-85
2024/04/07 16:38:21;;;;;;;2.50;1.50;;;;;;;25.01;62.45;100108.81;180345;1254;60560;-84
2024/04/07 16:42:24;;;;;;;1.80;1.00;;;;;;;24.82;66.51;100106.89;179969;1254;46160;-83
2024/04/07 16:46:28;;;;;;;3.60;0.90;;;;;;;24.68;66.74;100104.42;179576;1256;46049;-83
2024/04/07 16:50:31;;;;;;;1.20;1.10;;;;;;;24.53;66.72;100100.21;179931;1256;44591;-85
2024/04/07 16:54:34;;;;;;;3.70;1.30;;;;;;;24.42;67.47;100105.14;179888;1254;45936;-84
2024/04/07 16:58:37;;;;;;;2.10;1.70;;;;;;;24.22;66.83;100107.15;180016;1257;59860;-84
2024/04/07 17:02:40;;;;;;;2.90;2.10;;;;;;;23.98;66.91;100108.11;179887;1255;45894;-85
2024/04/07 17:06:45;;;;;;;2.50;1.40;;;;;;;23.74;69.59;100112.99;179990;1254;46016;-85
2024/04/07 17:10:48;;;;;;;1.90;0.70;;;;;;;23.59;71.26;100114.76;179824;1254;46221;-84
2024/04/07 17:14:51;;;;;;;2.00;1.50;;;;;;;23.42;72.46;100114.62;179480;1252;46288;-84
2024/04/07 17:18:54;;;;;;;25.60;5.10;;;;;;;23.25;73.44;100123.43;180265;1254;59032;-88
2024/04/07 17:22:58;;;;;;;3.10;1.80;;;;;;;23.12;74.29;100126.71;179182;1255;46211;-86
2024/04/07 17:27:01;;;;;;;4.00;1.60;;;;;;;22.94;73.48;100126.25;180008;1254;46128;-87
2024/04/07 17:31:06;;;;;;;3.90;2.00;;;;;;;22.72;75.94;100129.63;179753;1254;232083;-89
2024/04/07 17:35:09;;;;;;;4.50;1.70;;;;;;;22.55;76.24;100128.83;179787;1254;44928;-88
2024/04/07 17:39:13;;;;;;;3.40;2.10;;;;;;;22.37;76.95;100137.48;180385;1254;58007;-87
2024/04/07 17:43:17;;;;;;;5.50;2.20;;;;;;;22.16;76.56;100148.09;180522;1254;44048;-89
2024/04/07 17:47:20;;;;;;;4.80;2.90;;;;;;;21.94;77.23;100155.83;180932;1254;43914;-88
2024/04/07 17:51:24;;;;;;;5.40;2.60;;;;;;;21.77;79.22;100165.48;180543;1253;44003;-89
2024/04/07 18:00:26;;;;;;;6.70;2.80;;;;;;;21.44;79.50;100166.27;142596;1260;59025;-59
2024/04/07 18:39:23;;;;;;;15.90;6.20;;;;;;;20.29;82.82;100207.60;175849;1289;58175;-65
2024/04/07 18:43:26;;;;;;;39.20;9.80;;;;;;;20.20;83.44;100207.98;179215;1270;46003;-59
2024/04/07 18:47:29;;;;;;;11.20;4.60;;;;;;;20.10;83.85;100206.84;179183;1269;43601;-64
2024/04/07 18:51:34;;;;;;;7.40;5.00;;;;;;;20.01;84.24;100202.92;179258;1272;44619;-59
2024/04/07 18:55:38;;;;;;;7.70;3.70;;;;;;;19.91;86.65;100200.91;179257;1269;45901;-65
2024/04/07 18:59:43;;;;;;;9.60;4.40;;;;;;;19.73;88.88;100200.16;179465;1271;58729;-59
2024/04/07 19:03:46;;;;;;;9.30;5.40;;;;;;;19.60;89.33;100201.19;179526;1269;43856;-61
2024/04/07 19:07:52;;;;;;;9.00;7.60;;;;;;;19.51;89.65;100214.59;179424;1270;44444;-61
2024/04/07 19:11:55;;;;;;;9.90;5.00;;;;;;;19.44;89.81;100223.26;179503;1270;46374;-63
2024/04/07 19:16:26;;;;;;;9.00;6.70;;;;;;;19.39;89.62;100223.52;180493;1261;45058;-61
2024/04/07 19:20:29;;;;;;;6.60;4.50;;;;;;;19.33;89.10;100224.51;180356;1260;58455;-62
2024/04/07 19:24:36;;;;;;;5.40;4.60;;;;;;;19.25;88.96;100226.44;180431;1260;43599;-66
2024/04/07 19:28:46;;;;;;;10.90;4.50;;;;;;;19.13;87.92;100225.50;180451;1259;43665;-62
2024/04/07 19:32:51;;;;;;;8.50;5.00;;;;;;;19.12;88.00;100227.61;180386;1260;43601;-63
2024/04/07 19:37:07;;;;;;;6.60;5.70;;;;;;;19.12;88.87;100223.66;180597;1259;43910;-62
2024/04/07 19:41:13;;;;;;;7.00;4.10;;;;;;;19.09;89.16;100222.45;180590;1259;58468;-63
2024/04/07 19:45:18;;;;;;;8.00;5.70;;;;;;;18.93;91.97;100216.38;180584;1258;46004;-64
2024/04/07 19:49:21;;;;;;;9.20;6.00;;;;;;;18.69;94.22;100216.27;180623;1259;45049;-59
2024/04/07 19:53:24;;;;;;;9.60;8.50;;;;;;;18.50;97.65;100214.53;180490;1257;45928;-61
2024/04/07 19:57:29;;;;;;;16.50;11.90;;;;;;;18.30;100.00;100208.91;180581;1257;44693;-62